Holt (Pine Ridge), New South Wales

5:13 AM AEST on August 03, 2015 (GMT +1000)
Holt | | Change Station
CLOSE
Current Station
Personal Weather Station
Location: Canberra, AUSTRALIAN CAPITAL TERRITORY
Elevation: 1985 ft
Nearby Weather Stations

Elev 1985 ft 35.23 °S, 149.01 °E | Updated 3 minutes ago

Mostly Cloudy
Mostly Cloudy
42.3 °F
Feels Like 42 °F
N
1.0
Wind Variable Wind from NNW
Gusts 10.0 mph

Today
High -- | Low -- °F
--% Chance of Precip.
Yesterday
High -- | Low -- °F
Precip. -- in
6:57 AM 5:22 PM
Waning Gibbous, 92% visible
Pressure 29.89 in
Visibility 6.2 miles
Clouds Mostly Cloudy 3000 ft
Windchill 42 °F
Dew Point 34 °F
Humidity 72%
Rainfall 0.00 in
Snow Depth Not available.
UV 0 out of 12
Pollen Not available.
Air Quality Not available.
Flu Activity Not available.
SPECI YSCB 021906Z 34017G27KT 9999 BKN030 07/02 Q1012 TEMPO 1906/2100 9999 BKN022 FM1906 MOD/SEV TURB BLW 5000FT

More Conditions Fewer Conditions

Pressure 29.89 in
Visibility 6.2 miles
Clouds Mostly Cloudy 3000 ft
Windchill 42 °F
Dew Point 34 °F
Humidity 72%
Rainfall 0.00 in
Snow Depth Not available.
UV 0 out of 12
Pollen Not available.
Air Quality Not available.
Flu Activity Not available.
SPECI YSCB 021906Z 34017G27KT 9999 BKN030 07/02 Q1012 TEMPO 1906/2100 9999 BKN022 FM1906 MOD/SEV TURB BLW 5000FT

More Conditions Fewer Conditions

10-Day Weather Forecast

×

Almanac

Astronomy

Aug. 03, 2015 Rise Set
Actual Time
Civil Twilight
Nautical Twilight
Astronomical Twilight
Moon
Length of Visible Light
Length of Day
Tomorrow will be .
, % of the Moon is Illuminated

Today's Extremes

Country Highs Country Lows

Community

WunderPhotos

Upload Photos

1,843,342 photos uploaded!

WunderBlogs® & News

Nearby

Air Quality

  Air Quality AQ Index Pollutant
Not available.

Snow Depth

Station Depth Elevation

Earthquake Activity

City Distance Mag. Time & Date
Minimum magnitude displayed is 2.5.

Coastal Water Temperatures

Place Temperature

Stations

Nearby Weather Stations

Station Location Temp. Windchill Dew Point Humidity Wind Precip. Elev Updated Type